Time;durP1;ratioP1;P1;durP2;ratioP2;P2;SDS_P1;SDS_P2;PMS_P1;PMS_P2;Temp;Humidity;BMP_temperature;BMP_pressure;BME280_temperature;BME280_humidity;BME280_pressure;Samples;Min_cycle;Max_cycle;Signal;HPM_P1;HPM_P2
2022/06/27 00:00:24;;;;;;;17.92;10.18;;;;;;;;;;5026653;28;20132;-79
2022/06/27 00:02:50;;;;;;;16.23;10.20;;;;;;;;;;5028133;28;20365;-84
2022/06/27 00:05:16;;;;;;;16.25;9.50;;;;;;;;;;5026782;28;20358;-82
2022/06/27 00:07:42;;;;;;;15.15;9.23;;;;;;;;;;5027676;28;20418;-85
2022/06/27 00:10:08;;;;;;;;;;;;;;;;;;5028502;28;20044;-84
2022/06/27 00:12:34;;;;;;;16.10;9.70;;;;;;;;;;5027368;28;19925;-83
2022/06/27 00:15:00;;;;;;;20.70;10.40;;;;;;;;;;5026403;28;20107;-80
2022/06/27 00:17:29;;;;;;;18.23;9.85;;;;;;;;;;5027437;28;20124;-86
2022/06/27 00:19:55;;;;;;;18.27;9.65;;;;;;;;;;5027150;28;20125;-77
2022/06/27 00:22:21;;;;;;;;;;;;;;;;;;5026027;28;20156;-83
2022/06/27 00:24:47;;;;;;;16.05;9.68;;;;;;;;;;5027674;28;19929;-81
2022/06/27 00:27:13;;;;;;;17.42;10.05;;;;;;;;;;5025418;28;20059;-84
2022/06/27 00:29:40;;;;;;;16.40;10.68;;;;;;;;;;5010956;28;20041;-87
2022/06/27 00:32:07;;;;;;;17.55;10.93;;;;;;;;;;5021822;28;20129;-86
2022/06/27 00:34:33;;;;;;;19.70;10.95;;;;;;;;;;5030034;28;20049;-85
2022/06/27 00:37:00;;;;;;;19.52;12.27;;;;;;;;;;5028459;28;20050;-88
2022/06/27 00:39:26;;;;;;;22.95;12.20;;;;;;;;;;5028031;28;20045;-86
2022/06/27 00:41:53;;;;;;;18.92;11.32;;;;;;;;;;5026054;28;20125;-85
2022/06/27 00:44:35;;;;;;;19.83;12.32;;;;;;;;;;5027055;28;20331;-85
2022/06/27 00:47:02;;;;;;;17.90;11.80;;;;;;;;;;5024611;28;20041;-86
2022/06/27 00:49:28;;;;;;;19.33;12.57;;;;;;;;;;5025016;28;20519;-85
2022/06/27 00:51:54;;;;;;;;;;;;;;;;;;5025845;28;20037;-83
2022/06/27 00:54:22;;;;;;;19.77;12.32;;;;;;;;;;5029860;28;20318;-82
2022/06/27 00:56:48;;;;;;;19.33;12.07;;;;;;;;;;5028519;28;20056;-83
2022/06/27 00:59:14;;;;;;;19.17;12.07;;;;;;;;;;5013956;28;20069;-83
2022/06/27 01:01:40;;;;;;;;;;;;;;;;;;5022167;28;20193;-81
2022/06/27 01:04:07;;;;;;;20.52;12.23;;;;;;;;;;5030044;28;19969;-84
2022/06/27 01:06:38;;;;;;;;;;;;;;;;;;5029115;28;20041;-84
2022/06/27 01:09:04;;;;;;;20.65;13.70;;;;;;;;;;5028021;28;19971;-84
2022/06/27 01:11:30;;;;;;;;;;;;;;;;;;5029693;28;20072;-84
2022/06/27 01:13:57;;;;;;;21.95;13.98;;;;;;;;;;5028097;28;20102;-83
2022/06/27 01:16:23;;;;;;;;;;;;;;;;;;5029707;28;20050;-85
2022/06/27 01:18:49;;;;;;;22.20;14.18;;;;;;;;;;5028875;28;19931;-83
2022/06/27 01:21:20;;;;;;;21.13;13.85;;;;;;;;;;5029083;28;20059;-85
2022/06/27 01:23:46;;;;;;;23.42;14.32;;;;;;;;;;5029394;28;20187;-83
2022/06/27 01:26:13;;;;;;;20.67;13.80;;;;;;;;;;5027394;28;20409;-83
2022/06/27 01:28:39;;;;;;;20.73;12.82;;;;;;;;;;5027562;28;20041;-85
2022/06/27 01:31:05;;;;;;;;;;;;;;;;;;5028600;28;20049;-88
2022/06/27 01:33:31;;;;;;;21.15;14.20;;;;;;;;;;5028656;28;20397;-88
2022/06/27 01:38:42;;;;;;;20.33;13.32;;;;;;;;;;5028567;28;20492;-83
2022/06/27 01:41:08;;;;;;;;;;;;;;;;;;5029508;28;20061;-86
2022/06/27 01:43:34;;;;;;;21.95;14.07;;;;;;;;;;4990046;28;1093701;-87
2022/06/27 01:46:01;;;;;;;21.67;14.60;;;;;;;;;;5030156;28;20098;-86
2022/06/27 01:48:27;;;;;;;20.27;13.82;;;;;;;;;;5028874;28;20104;-86
2022/06/27 01:50:54;;;;;;;20.88;13.50;;;;;;;;;;5029081;28;20037;-83
2022/06/27 01:53:21;;;;;;;20.77;14.73;;;;;;;;;;5029810;28;20199;-84
2022/06/27 01:55:47;;;;;;;20.15;13.82;;;;;;;;;;5029175;28;20498;-79
2022/06/27 01:58:14;;;;;;;21.23;14.32;;;;;;;;;;5029212;28;20057;-86
2022/06/27 02:00:40;;;;;;;21.92;13.45;;;;;;;;;;5026152;28;20054;-84
2022/06/27 02:03:06;;;;;;;23.75;14.05;;;;;;;;;;5041539;28;20041;-85
2022/06/27 02:05:32;;;;;;;;;;;;;;;;;;5030597;28;20049;-81
2022/06/27 02:07:59;;;;;;;22.05;14.73;;;;;;;;;;5028794;28;20325;-84
2022/06/27 02:10:25;;;;;;;24.13;14.55;;;;;;;;;;5028741;28;20147;-84
2022/06/27 02:12:51;;;;;;;;;;;;;;;;;;5029333;28;20104;-84
2022/06/27 02:15:17;;;;;;;20.15;14.13;;;;;;;;;;5030337;28;20314;-85
2022/06/27 02:17:43;;;;;;;21.45;14.32;;;;;;;;;;5028786;28;20045;-85
2022/06/27 02:20:09;;;;;;;21.20;13.90;;;;;;;;;;5026499;28;20049;-84
2022/06/27 02:22:35;;;;;;;20.63;14.05;;;;;;;;;;5022180;28;20074;-85
2022/06/27 02:25:01;;;;;;;;;;;;;;;;;;5022069;28;20124;-84
2022/06/27 02:27:29;;;;;;;20.30;14.43;;;;;;;;;;5025180;28;20397;-84
2022/06/27 02:29:56;;;;;;;20.83;14.60;;;;;;;;;;5027171;28;20403;-85
2022/06/27 02:32:22;;;;;;;;;;;;;;;;;;5027087;28;20137;-85
2022/06/27 02:34:49;;;;;;;21.35;13.60;;;;;;;;;;5022230;28;20016;-85
2022/06/27 02:37:17;;;;;;;22.77;13.95;;;;;;;;;;5028757;28;20049;-85
2022/06/27 02:39:45;;;;;;;19.75;12.30;;;;;;;;;;5028859;28;20500;-87
2022/06/27 02:42:12;;;;;;;21.60;13.20;;;;;;;;;;5028441;28;20103;-85
2022/06/27 02:44:39;;;;;;;18.00;13.20;;;;;;;;;;5027400;28;20109;-85
2022/06/27 02:47:06;;;;;;;20.02;13.80;;;;;;;;;;5027800;28;20446;-83
2022/06/27 02:49:32;;;;;;;24.38;14.40;;;;;;;;;;5009928;28;20042;-85
2022/06/27 02:52:10;;;;;;;20.08;13.90;;;;;;;;;;5023962;28;20480;-85
2022/06/27 02:54:39;;;;;;;21.23;13.27;;;;;;;;;;5027024;28;20350;-84
2022/06/27 02:57:11;;;;;;;19.92;13.48;;;;;;;;;;5026281;28;20050;-84
2022/06/27 02:59:39;;;;;;;23.67;14.70;;;;;;;;;;5029167;28;20323;-84
2022/06/27 03:02:08;;;;;;;22.73;14.63;;;;;;;;;;5027123;28;20159;-84
2022/06/27 03:04:34;;;;;;;22.23;13.57;;;;;;;;;;5027645;28;20057;-82
2022/06/27 03:07:00;;;;;;;;;;;;;;;;;;5027405;28;20536;-86
2022/06/27 03:09:26;;;;;;;24.80;17.48;;;;;;;;;;5028932;28;20035;-83
2022/06/27 03:11:52;;;;;;;22.83;16.80;;;;;;;;;;5026412;28;20053;-81
2022/06/27 03:14:18;;;;;;;;;;;;;;;;;;5028439;28;20103;-82
2022/06/27 03:16:44;;;;;;;26.33;18.40;;;;;;;;;;5022138;28;19921;-83
2022/06/27 03:19:10;;;;;;;;;;;;;;;;;;5027536;28;20077;-83
2022/06/27 03:21:36;;;;;;;24.67;17.50;;;;;;;;;;5025362;28;20238;-84
2022/06/27 03:24:02;;;;;;;23.90;17.90;;;;;;;;;;5007335;28;20130;-83
2022/06/27 03:26:28;;;;;;;;;;;;;;;;;;5017081;28;20057;-83
2022/06/27 03:28:54;;;;;;;25.20;18.48;;;;;;;;;;5043836;28;19921;-83
2022/06/27 03:31:21;;;;;;;24.38;18.63;;;;;;;;;;5024869;28;20056;-82
2022/06/27 03:33:47;;;;;;;26.80;19.05;;;;;;;;;;5027938;28;20083;-83
2022/06/27 03:36:13;;;;;;;;;;;;;;;;;;5016239;28;20143;-82
2022/06/27 03:38:39;;;;;;;28.35;19.05;;;;;;;;;;5027667;28;19924;-82
2022/06/27 03:41:05;;;;;;;27.08;19.05;;;;;;;;;;5026017;28;20057;-81
2022/06/27 03:43:31;;;;;;;26.88;20.90;;;;;;;;;;5017556;28;20130;-83
2022/06/27 03:45:57;;;;;;;29.02;22.98;;;;;;;;;;5024939;28;20057;-84
2022/06/27 03:51:10;;;;;;;30.42;22.80;;;;;;;;;;5026157;28;20065;-83
2022/06/27 03:53:36;;;;;;;32.97;23.77;;;;;;;;;;5026456;28;20124;-86
2022/06/27 03:56:02;;;;;;;29.95;22.65;;;;;;;;;;5026527;28;20045;-82
2022/06/27 03:58:28;;;;;;;32.05;23.63;;;;;;;;;;5025634;28;20486;-82
2022/06/27 04:00:54;;;;;;;;;;;;;;;;;;5027013;28;20400;-83
2022/06/27 04:03:20;;;;;;;30.63;21.17;;;;;;;;;;5024035;28;19928;-86
2022/06/27 04:05:46;;;;;;;31.17;21.17;;;;;;;;;;5027045;28;20059;-82
2022/06/27 04:08:12;;;;;;;31.17;22.23;;;;;;;;;;5021054;28;20050;-82
2022/06/27 04:10:38;;;;;;;29.33;19.40;;;;;;;;;;5025763;28;20074;-82
2022/06/27 04:13:05;;;;;;;29.27;20.65;;;;;;;;;;5023796;28;20050;-81
2022/06/27 04:15:31;;;;;;;28.67;19.65;;;;;;;;;;5024352;28;20061;-82
2022/06/27 04:17:57;;;;;;;;;;;;;;;;;;5023760;28;20057;-82
2022/06/27 04:20:24;;;;;;;29.98;20.05;;;;;;;;;;5024137;28;20041;-83
2022/06/27 04:22:51;;;;;;;27.75;20.73;;;;;;;;;;5025329;28;20053;-84
2022/06/27 04:25:17;;;;;;;28.65;19.92;;;;;;;;;;5025117;28;20079;-82
2022/06/27 04:27:43;;;;;;;;;;;;;;;;;;5024647;28;20045;-82
2022/06/27 04:30:15;;;;;;;30.98;20.75;;;;;;;;;;5022233;28;20440;-82
2022/06/27 04:32:42;;;;;;;31.73;20.48;;;;;;;;;;5039374;28;20053;-82
2022/06/27 04:35:08;;;;;;;32.72;22.58;;;;;;;;;;5025884;28;20045;-83
2022/06/27 04:37:34;;;;;;;31.17;21.52;;;;;;;;;;5025394;28;20051;-83
2022/06/27 04:40:00;;;;;;;29.98;21.65;;;;;;;;;;5025153;28;20059;-83
2022/06/27 04:42:26;;;;;;;28.27;19.70;;;;;;;;;;5024413;28;20576;-83
2022/06/27 04:44:53;;;;;;;;;;;;;;;;;;5025207;28;20235;-82
2022/06/27 04:47:20;;;;;;;27.97;18.53;;;;;;;;;;5025768;28;19995;-87
2022/06/27 04:49:46;;;;;;;25.08;17.35;;;;;;;;;;5024547;28;20319;-87
2022/06/27 04:52:12;;;;;;;23.40;16.92;;;;;;;;;;5022883;28;20045;-86
2022/06/27 04:54:38;;;;;;;25.92;16.90;;;;;;;;;;5011482;28;20456;-83
2022/06/27 04:57:05;;;;;;;22.30;14.48;;;;;;;;;;5019374;28;20049;-84
2022/06/27 04:59:32;;;;;;;21.05;14.30;;;;;;;;;;5025865;28;20127;-83
2022/06/27 05:01:58;;;;;;;23.00;13.73;;;;;;;;;;5023278;28;20136;-83
2022/06/27 05:04:24;;;;;;;21.17;14.10;;;;;;;;;;5006238;28;20072;-83
2022/06/27 05:06:50;;;;;;;;;;;;;;;;;;5004417;28;20083;-84
2022/06/27 05:09:16;;;;;;;22.55;13.02;;;;;;;;;;5023529;28;19921;-83
2022/06/27 05:11:45;;;;;;;18.20;12.70;;;;;;;;;;5024415;28;20112;-83
2022/06/27 05:14:11;;;;;;;19.02;12.02;;;;;;;;;;5024962;28;20117;-83
2022/06/27 05:16:38;;;;;;;19.42;12.13;;;;;;;;;;5024993;28;20077;-84
2022/06/27 05:19:04;;;;;;;18.83;11.52;;;;;;;;;;5024506;28;20075;-86
2022/06/27 05:21:30;;;;;;;17.42;10.85;;;;;;;;;;5022894;28;20299;-84
2022/06/27 05:23:57;;;;;;;17.23;11.27;;;;;;;;;;5026024;28;20057;-85
2022/06/27 05:26:23;;;;;;;;;;;;;;;;;;5023815;28;20053;-85
2022/06/27 05:28:49;;;;;;;15.77;10.20;;;;;;;;;;5024060;28;20281;-83
2022/06/27 05:31:15;;;;;;;18.00;9.73;;;;;;;;;;5023831;28;20095;-82
2022/06/27 05:33:42;;;;;;;17.05;9.82;;;;;;;;;;5020309;28;20050;-85
2022/06/27 05:36:10;;;;;;;15.45;10.05;;;;;;;;;;5026365;28;20049;-83
2022/06/27 05:38:37;;;;;;;13.73;8.30;;;;;;;;;;5023469;28;20052;-84
2022/06/27 05:41:03;;;;;;;14.00;8.07;;;;;;;;;;5028708;28;20385;-84
2022/06/27 05:43:30;;;;;;;;;;;;;;;;;;5027087;28;20057;-86
2022/06/27 05:45:56;;;;;;;;;;;;;;;;;;5029043;28;19990;-83
2022/06/27 05:48:23;;;;;;;12.98;7.38;;;;;;;;;;5022434;28;19921;-85
2022/06/27 05:50:49;;;;;;;13.77;7.72;;;;;;;;;;5038771;28;20042;-83
2022/06/27 05:53:15;;;;;;;12.52;6.90;;;;;;;;;;5027216;28;20093;-80
2022/06/27 05:55:46;;;;;;;11.90;6.47;;;;;;;;;;5026213;28;20038;-85
2022/06/27 05:58:13;;;;;;;11.55;6.60;;;;;;;;;;5025446;28;20112;-82
2022/06/27 06:00:39;;;;;;;14.27;6.55;;;;;;;;;;5024169;28;20049;-83
2022/06/27 06:03:05;;;;;;;;;;;;;;;;;;5027573;28;20179;-83
2022/06/27 06:05:31;;;;;;;12.05;6.20;;;;;;;;;;5025006;28;20000;-79
2022/06/27 06:08:04;;;;;;;12.73;6.07;;;;;;;;;;5024582;28;20068;-80
2022/06/27 06:10:33;;;;;;;11.35;6.38;;;;;;;;;;5026285;28;20053;-78
2022/06/27 06:13:01;;;;;;;12.32;6.18;;;;;;;;;;5025536;28;20042;-78
2022/06/27 06:15:27;;;;;;;11.30;5.95;;;;;;;;;;5024644;28;20049;-82
2022/06/27 06:17:55;;;;;;;10.90;6.13;;;;;;;;;;5024884;28;20113;-81
2022/06/27 06:20:22;;;;;;;10.25;5.53;;;;;;;;;;5023965;28;20496;-79
2022/06/27 06:22:48;;;;;;;10.52;5.07;;;;;;;;;;5026875;28;20455;-79
2022/06/27 06:25:14;;;;;;;11.18;5.38;;;;;;;;;;5026924;28;20072;-80
2022/06/27 06:27:40;;;;;;;;;;;;;;;;;;5025935;28;20126;-81
2022/06/27 06:30:07;;;;;;;9.27;4.80;;;;;;;;;;5025799;28;20091;-81
2022/06/27 06:32:37;;;;;;;11.75;4.75;;;;;;;;;;5027829;28;20053;-80
2022/06/27 06:35:04;;;;;;;9.25;4.50;;;;;;;;;;5026137;28;20505;-80
2022/06/27 06:37:31;;;;;;;12.30;5.40;;;;;;;;;;5026291;28;20053;-81
2022/06/27 06:39:57;;;;;;;10.32;4.97;;;;;;;;;;5028183;28;20477;-81
2022/06/27 06:42:23;;;;;;;;;;;;;;;;;;5028223;28;20155;-80
2022/06/27 06:44:52;;;;;;;9.83;4.40;;;;;;;;;;5019197;28;20237;-80
2022/06/27 06:47:19;;;;;;;11.07;4.65;;;;;;;;;;5027516;28;20061;-81
2022/06/27 06:49:46;;;;;;;10.75;3.85;;;;;;;;;;5013301;28;20045;-82
2022/06/27 06:52:13;;;;;;;9.85;4.32;;;;;;;;;;5028177;28;20045;-81
2022/06/27 06:54:41;;;;;;;8.82;3.88;;;;;;;;;;5027483;28;20397;-82
2022/06/27 06:57:10;;;;;;;10.05;4.30;;;;;;;;;;5026085;28;20121;-82
2022/06/27 06:59:36;;;;;;;10.18;4.03;;;;;;;;;;5025905;28;20057;-82
2022/06/27 07:02:03;;;;;;;9.43;4.40;;;;;;;;;;5028105;28;20076;-81
2022/06/27 07:04:29;;;;;;;11.10;4.00;;;;;;;;;;5005971;28;20482;-82
2022/06/27 07:06:57;;;;;;;9.70;4.40;;;;;;;;;;5018980;28;20118;-82
2022/06/27 07:09:23;;;;;;;11.85;5.55;;;;;;;;;;5027776;28;20056;-84
2022/06/27 07:11:50;;;;;;;;;;;;;;;;;;5027487;28;20060;-81
2022/06/27 07:14:16;;;;;;;10.70;5.20;;;;;;;;;;5027281;28;19920;-81
2022/06/27 07:16:46;;;;;;;10.80;5.47;;;;;;;;;;5024968;28;20042;-81
2022/06/27 07:19:13;;;;;;;10.35;4.97;;;;;;;;;;5026020;28;20521;-83
2022/06/27 07:21:40;;;;;;;12.30;4.95;;;;;;;;;;5026410;28;20045;-83
2022/06/27 07:24:08;;;;;;;;;;;;;;;;;;5024507;28;20445;-81
2022/06/27 07:26:35;;;;;;;11.95;7.20;;;;;;;;;;5025388;28;19921;-82
2022/06/27 07:29:05;;;;;;;12.00;7.25;;;;;;;;;;5027149;28;20168;-83
2022/06/27 07:31:31;;;;;;;12.70;6.85;;;;;;;;;;5024887;28;20125;-81
2022/06/27 07:33:58;;;;;;;11.05;6.45;;;;;;;;;;5027582;28;20068;-82
2022/06/27 07:36:25;;;;;;;16.42;7.82;;;;;;;;;;5024406;28;20133;-82
2022/06/27 07:38:53;;;;;;;13.02;6.75;;;;;;;;;;5026369;28;20121;-82
2022/06/27 07:41:20;;;;;;;12.88;7.70;;;;;;;;;;5027712;28;20042;-88
2022/06/27 07:43:47;;;;;;;11.73;7.28;;;;;;;;;;5021500;28;20131;-81
2022/06/27 07:46:15;;;;;;;13.30;7.18;;;;;;;;;;5027640;28;20132;-82
2022/06/27 07:48:41;;;;;;;14.20;7.35;;;;;;;;;;5020631;28;20144;-81
2022/06/27 07:51:08;;;;;;;13.40;6.90;;;;;;;;;;5027290;28;20148;-83
2022/06/27 07:53:35;;;;;;;13.15;6.55;;;;;;;;;;5025594;28;20076;-82
2022/06/27 07:56:03;;;;;;;13.20;6.70;;;;;;;;;;5026040;28;20049;-83
2022/06/27 07:58:30;;;;;;;11.85;6.65;;;;;;;;;;5024741;28;20064;-82
2022/06/27 08:00:57;;;;;;;13.60;7.30;;;;;;;;;;5025913;28;20068;-83
2022/06/27 08:06:09;;;;;;;13.02;5.68;;;;;;;;;;5026184;28;20101;-81
2022/06/27 08:08:36;;;;;;;14.05;6.20;;;;;;;;;;5024398;28;20049;-81
2022/06/27 08:11:03;;;;;;;14.02;6.18;;;;;;;;;;5024967;28;20091;-81
2022/06/27 08:13:31;;;;;;;14.77;6.18;;;;;;;;;;5025698;28;20080;-81
2022/06/27 08:15:57;;;;;;;11.85;6.35;;;;;;;;;;5026337;28;20041;-81
2022/06/27 08:18:23;;;;;;;12.30;6.30;;;;;;;;;;5022492;28;20084;-81
2022/06/27 08:20:49;;;;;;;;;;;;;;;;;;5008632;28;21740;-80
2022/06/27 08:23:17;;;;;;;11.75;6.32;;;;;;;;;;5022678;28;19989;-79
2022/06/27 08:25:46;;;;;;;10.65;6.53;;;;;;;;;;5009802;28;20191;-81
2022/06/27 08:28:14;;;;;;;12.25;6.78;;;;;;;;;;5010547;28;20158;-81
2022/06/27 08:30:41;;;;;;;11.43;6.22;;;;;;;;;;5011971;28;20115;-80
2022/06/27 08:33:08;;;;;;;15.15;6.65;;;;;;;;;;5016306;28;20167;-81
2022/06/27 08:35:35;;;;;;;14.13;7.45;;;;;;;;;;5027129;28;20488;-80
2022/06/27 08:38:01;;;;;;;13.52;7.57;;;;;;;;;;5028041;28;20037;-82
2022/06/27 08:40:28;;;;;;;12.80;7.20;;;;;;;;;;5024886;28;20049;-82
2022/06/27 08:42:57;;;;;;;15.48;7.60;;;;;;;;;;5025514;28;20065;-82
2022/06/27 08:45:25;;;;;;;15.00;7.43;;;;;;;;;;5021747;28;20158;-83
2022/06/27 08:47:54;;;;;;;11.25;6.43;;;;;;;;;;5024764;28;20049;-82
2022/06/27 08:50:20;;;;;;;12.77;6.50;;;;;;;;;;5020666;28;20454;-82
2022/06/27 08:52:48;;;;;;;;;;;;;;;;;;5026754;28;20095;-83
2022/06/27 08:55:14;;;;;;;11.88;7.20;;;;;;;;;;5024965;28;20214;-82
2022/06/27 08:57:45;;;;;;;12.20;7.18;;;;;;;;;;5026373;28;20064;-82
2022/06/27 09:00:15;;;;;;;10.90;6.22;;;;;;;;;;5024703;28;20394;-81
2022/06/27 09:02:44;;;;;;;12.48;6.95;;;;;;;;;;5025105;28;20120;-84
2022/06/27 09:05:11;;;;;;;12.00;6.38;;;;;;;;;;5024240;28;20128;-84
2022/06/27 09:07:46;;;;;;;12.70;6.85;;;;;;;;;;5026061;28;20149;-84
2022/06/27 09:10:23;;;;;;;11.32;6.40;;;;;;;;;;5014518;28;20049;-83
2022/06/27 09:13:00;;;;;;;11.20;6.25;;;;;;;;;;5029901;28;20067;-83
2022/06/27 09:15:26;;;;;;;;;;;;;;;;;;5018398;28;20057;-82
2022/06/27 09:18:00;;;;;;;12.52;6.72;;;;;;;;;;5028373;28;19946;-83
2022/06/27 09:20:45;;;;;;;12.80;7.07;;;;;;;;;;5032014;28;20041;-86
2022/06/27 09:23:26;;;;;;;15.35;7.57;;;;;;;;;;5030677;28;20042;-82
2022/06/27 09:25:58;;;;;;;13.23;7.68;;;;;;;;;;5018032;28;20053;-82
2022/06/27 09:28:37;;;;;;;16.75;7.10;;;;;;;;;;5021762;28;20057;-81
2022/06/27 09:31:03;;;;;;;13.52;6.75;;;;;;;;;;5029981;28;20045;-83
2022/06/27 09:33:33;;;;;;;14.82;7.68;;;;;;;;;;5028971;28;20093;-82
2022/06/27 09:36:08;;;;;;;13.75;6.95;;;;;;;;;;5027183;28;20068;-84
2022/06/27 09:38:34;;;;;;;11.80;6.78;;;;;;;;;;5043620;28;20122;-87
2022/06/27 09:41:00;;;;;;;;;;;;;;;;;;5028977;28;20037;-87
2022/06/27 09:43:27;;;;;;;14.50;7.72;;;;;;;;;;5028857;28;20016;-84
2022/06/27 09:45:53;;;;;;;12.52;7.40;;;;;;;;;;5019109;28;20048;-84
2022/06/27 09:48:20;;;;;;;13.38;6.93;;;;;;;;;;5028272;28;20150;-84
2022/06/27 09:50:48;;;;;;;15.68;8.38;;;;;;;;;;5027035;28;20083;-84
2022/06/27 09:53:14;;;;;;;12.95;8.20;;;;;;;;;;5028891;28;20345;-85
2022/06/27 09:55:41;;;;;;;;;;;;;;;;;;5025893;28;20133;-85
2022/06/27 09:58:09;;;;;;;15.27;9.10;;;;;;;;;;5016317;28;20000;-86
2022/06/27 10:00:36;;;;;;;18.65;9.68;;;;;;;;;;5024644;28;20418;-86
2022/06/27 10:03:05;;;;;;;20.90;9.80;;;;;;;;;;5028149;28;20341;-86
2022/06/27 10:05:31;;;;;;;16.83;8.80;;;;;;;;;;5028320;28;20485;-84
2022/06/27 10:07:58;;;;;;;17.40;8.68;;;;;;;;;;5024500;28;20132;-83
2022/06/27 10:10:24;;;;;;;16.05;9.25;;;;;;;;;;5011727;28;20426;-89
2022/06/27 10:13:01;;;;;;;16.83;9.55;;;;;;;;;;5027986;28;20099;-88
2022/06/27 10:15:28;;;;;;;14.82;8.63;;;;;;;;;;5028443;28;20469;-86
2022/06/27 10:17:55;;;;;;;14.77;8.38;;;;;;;;;;5028925;28;20072;-88
2022/06/27 10:20:29;;;;;;;14.68;7.80;;;;;;;;;;5029327;28;20095;-85
2022/06/27 10:23:04;;;;;;;12.52;6.53;;;;;;;;;;5027937;28;20061;-89
2022/06/27 10:25:30;;;;;;;15.57;7.00;;;;;;;;;;5026719;28;20045;-90
2022/06/27 10:28:14;;;;;;;11.95;6.40;;;;;;;;;;5028619;28;20045;-85
2022/06/27 10:30:42;;;;;;;12.13;6.60;;;;;;;;;;5024719;28;20422;-84
2022/06/27 10:33:24;;;;;;;12.30;6.78;;;;;;;;;;5027469;28;20312;-89
2022/06/27 10:35:53;;;;;;;13.00;6.03;;;;;;;;;;5025531;28;20157;-86
2022/06/27 10:38:23;;;;;;;11.63;6.07;;;;;;;;;;5027258;28;20075;-88
2022/06/27 10:40:50;;;;;;;13.73;5.63;;;;;;;;;;5028742;28;20454;-82
2022/06/27 10:43:35;;;;;;;11.02;5.90;;;;;;;;;;5026928;28;20053;-89
2022/06/27 10:46:01;;;;;;;10.10;5.82;;;;;;;;;;5026895;28;20050;-86
2022/06/27 10:48:33;;;;;;;14.00;5.75;;;;;;;;;;5028005;28;20119;-89
2022/06/27 10:51:19;;;;;;;10.82;5.90;;;;;;;;;;5027579;28;20091;-88
2022/06/27 10:53:46;;;;;;;10.68;6.20;;;;;;;;;;5027800;28;20335;-86
2022/06/27 10:56:30;;;;;;;11.93;5.93;;;;;;;;;;5027185;28;20049;-81
2022/06/27 10:58:57;;;;;;;12.05;6.38;;;;;;;;;;5010066;28;20124;-88
2022/06/27 11:01:23;;;;;;;10.88;5.70;;;;;;;;;;5026005;28;20061;-86
2022/06/27 11:03:50;;;;;;;11.80;5.25;;;;;;;;;;5027297;28;20326;-89
2022/06/27 11:06:17;;;;;;;11.13;5.72;;;;;;;;;;5028335;28;20045;-90
2022/06/27 11:08:44;;;;;;;10.45;5.05;;;;;;;;;;5027277;28;20140;-86
2022/06/27 11:11:16;;;;;;;11.90;5.25;;;;;;;;;;5026627;28;20381;-88
2022/06/27 11:13:43;;;;;;;12.18;5.07;;;;;;;;;;5028068;28;20053;-86
2022/06/27 11:16:13;;;;;;;11.02;4.72;;;;;;;;;;5027581;28;20049;-87
2022/06/27 11:18:43;;;;;;;9.73;4.90;;;;;;;;;;5013774;28;20057;-87
2022/06/27 11:21:11;;;;;;;9.30;4.38;;;;;;;;;;5030926;28;20426;-87
2022/06/27 11:23:57;;;;;;;12.50;4.28;;;;;;;;;;5028821;28;20440;-86
2022/06/27 11:26:25;;;;;;;10.88;4.07;;;;;;;;;;5013162;28;20049;-88
2022/06/27 11:34:23;;;;;;;10.23;4.20;;;;;;;;;;5037042;28;20096;-86
2022/06/27 11:36:50;;;;;;;10.00;4.55;;;;;;;;;;5038827;28;20057;-89
2022/06/27 11:39:16;;;;;;;;;;;;;;;;;;5028600;28;20080;-88
2022/06/27 11:41:42;;;;;;;9.70;4.00;;;;;;;;;;5047718;28;19917;-87
2022/06/27 11:44:10;;;;;;;9.02;3.78;;;;;;;;;;5028006;28;20288;-87
2022/06/27 11:46:41;;;;;;;10.57;3.80;;;;;;;;;;5026509;28;20045;-87
2022/06/27 11:49:11;;;;;;;8.48;3.67;;;;;;;;;;5026883;28;20120;-88
2022/06/27 11:51:41;;;;;;;8.98;3.40;;;;;;;;;;5027093;28;20060;-87
2022/06/27 11:54:08;;;;;;;12.38;3.80;;;;;;;;;;5027215;28;20088;-87
2022/06/27 11:56:35;;;;;;;9.52;3.75;;;;;;;;;;5026663;28;20113;-88
2022/06/27 11:59:02;;;;;;;10.20;3.78;;;;;;;;;;5025911;28;20341;-88
2022/06/27 12:01:28;;;;;;;8.48;3.58;;;;;;;;;;5027251;28;20041;-86
2022/06/27 12:04:06;;;;;;;9.40;4.00;;;;;;;;;;5025721;28;20194;-87
2022/06/27 12:06:39;;;;;;;9.43;4.10;;;;;;;;;;5025342;28;20130;-88
2022/06/27 12:09:05;;;;;;;11.30;4.03;;;;;;;;;;5026617;28;20042;-88
2022/06/27 12:11:32;;;;;;;;;;;;;;;;;;5027318;28;20033;-88
2022/06/27 12:13:59;;;;;;;8.90;4.05;;;;;;;;;;5027046;28;19921;-87
2022/06/27 12:16:27;;;;;;;9.32;4.32;;;;;;;;;;5024222;28;20049;-85
2022/06/27 12:18:53;;;;;;;10.15;3.95;;;;;;;;;;5026018;28;20045;-86
2022/06/27 12:21:20;;;;;;;;;;;;;;;;;;5026819;28;20034;-85
2022/06/27 12:23:46;;;;;;;9.23;4.23;;;;;;;;;;5026635;28;20020;-84
2022/06/27 12:26:12;;;;;;;9.25;4.07;;;;;;;;;;5026467;28;20742;-86
2022/06/27 12:28:42;;;;;;;9.68;4.10;;;;;;;;;;5024222;28;20134;-88
2022/06/27 12:31:08;;;;;;;11.40;5.00;;;;;;;;;;5025775;28;20049;-82
2022/06/27 12:33:34;;;;;;;;;;;;;;;;;;5026374;28;20053;-89
2022/06/27 12:36:00;;;;;;;11.10;4.80;;;;;;;;;;5026520;28;19929;-88
2022/06/27 12:38:26;;;;;;;;;;;;;;;;;;5026577;28;20087;-87
2022/06/27 12:41:11;;;;;;;11.13;4.80;;;;;;;;;;5026529;28;19921;-85
2022/06/27 12:43:38;;;;;;;10.82;5.43;;;;;;;;;;5027735;28;20256;-84
2022/06/27 12:46:05;;;;;;;10.82;5.03;;;;;;;;;;5030661;28;20441;-82
2022/06/27 12:48:32;;;;;;;10.48;5.43;;;;;;;;;;5030474;28;20049;-83
2022/06/27 12:50:58;;;;;;;12.23;5.90;;;;;;;;;;5030381;28;20346;-81
2022/06/27 12:53:24;;;;;;;;;;;;;;;;;;5029483;28;20448;-80
2022/06/27 12:55:50;;;;;;;11.18;5.47;;;;;;;;;;5029294;28;19994;-79
2022/06/27 12:58:17;;;;;;;12.85;5.75;;;;;;;;;;5029725;28;20132;-80
2022/06/27 13:00:43;;;;;;;10.80;5.15;;;;;;;;;;5030305;28;20048;-79
2022/06/27 13:03:09;;;;;;;10.93;5.55;;;;;;;;;;5028666;28;20057;-80
2022/06/27 13:05:35;;;;;;;11.73;5.13;;;;;;;;;;5030023;28;20067;-80
2022/06/27 13:08:01;;;;;;;9.73;5.13;;;;;;;;;;5027887;28;20132;-80
2022/06/27 13:10:28;;;;;;;;;;;;;;;;;;5028837;28;20053;-81
2022/06/27 13:12:55;;;;;;;11.70;6.03;;;;;;;;;;5029779;28;20309;-80
2022/06/27 13:15:21;;;;;;;;;;;;;;;;;;5029725;28;20045;-81
2022/06/27 13:17:48;;;;;;;11.10;5.90;;;;;;;;;;5029950;28;20280;-80
2022/06/27 13:20:14;;;;;;;12.85;6.65;;;;;;;;;;5028748;28;20057;-78
2022/06/27 13:22:40;;;;;;;13.77;7.07;;;;;;;;;;5028999;28;20045;-79
2022/06/27 13:25:06;;;;;;;;;;;;;;;;;;5030109;28;20392;-79
2022/06/27 13:27:32;;;;;;;12.10;6.63;;;;;;;;;;5023894;28;19921;-78
2022/06/27 13:29:58;;;;;;;14.13;7.10;;;;;;;;;;5027297;28;20061;-78
2022/06/27 13:32:24;;;;;;;;;;;;;;;;;;5028191;28;20114;-79
2022/06/27 13:34:50;;;;;;;15.20;7.80;;;;;;;;;;5029078;28;20012;-78
2022/06/27 13:37:16;;;;;;;15.20;8.48;;;;;;;;;;5009810;28;20504;-77
2022/06/27 13:39:43;;;;;;;17.00;8.57;;;;;;;;;;5026845;28;20362;-78
2022/06/27 13:42:09;;;;;;;16.42;8.35;;;;;;;;;;5027738;28;20049;-78
2022/06/27 13:44:35;;;;;;;15.27;8.30;;;;;;;;;;5029425;28;20485;-77
2022/06/27 13:47:01;;;;;;;;;;;;;;;;;;5033404;28;20044;-77
2022/06/27 13:49:28;;;;;;;13.82;8.40;;;;;;;;;;5037928;28;20241;-77
2022/06/27 13:51:54;;;;;;;17.88;9.48;;;;;;;;;;5027147;28;20041;-78
2022/06/27 13:54:20;;;;;;;14.02;9.70;;;;;;;;;;5027509;28;20050;-78
2022/06/27 13:56:46;;;;;;;16.20;10.27;;;;;;;;;;5028730;28;20041;-79
2022/06/27 13:59:13;;;;;;;;;;;;;;;;;;5027942;28;20115;-78
2022/06/27 14:01:42;;;;;;;17.50;11.85;;;;;;;;;;5027451;28;19936;-78
2022/06/27 14:04:08;;;;;;;18.70;12.48;;;;;;;;;;5028935;28;20409;-79
2022/06/27 14:09:20;;;;;;;17.73;12.63;;;;;;;;;;5008617;28;20131;-79
2022/06/27 14:11:46;;;;;;;18.25;12.55;;;;;;;;;;5011596;28;20041;-80
2022/06/27 14:14:12;;;;;;;;;;;;;;;;;;5027398;28;20069;-80
2022/06/27 14:16:38;;;;;;;21.67;15.15;;;;;;;;;;5027525;28;20428;-80
2022/06/27 14:19:04;;;;;;;;;;;;;;;;;;5029017;28;20137;-82
2022/06/27 14:21:31;;;;;;;19.98;13.93;;;;;;;;;;5026421;28;20031;-83
2022/06/27 14:23:58;;;;;;;17.10;11.90;;;;;;;;;;5026011;28;20390;-74
2022/06/27 14:26:24;;;;;;;20.95;14.77;;;;;;;;;;5028629;28;20053;-82
2022/06/27 14:28:50;;;;;;;;;;;;;;;;;;5027910;28;20135;-81
2022/06/27 14:31:16;;;;;;;21.88;15.70;;;;;;;;;;5029461;28;20024;-81
2022/06/27 14:33:42;;;;;;;;;;;;;;;;;;5028453;28;20373;-81
2022/06/27 14:36:09;;;;;;;18.40;14.03;;;;;;;;;;5026342;28;19947;-82
2022/06/27 14:38:36;;;;;;;22.20;14.05;;;;;;;;;;5026534;28;21584;-81
2022/06/27 14:41:03;;;;;;;20.08;14.60;;;;;;;;;;5023064;28;20058;-81
2022/06/27 14:43:29;;;;;;;19.27;12.77;;;;;;;;;;5022481;28;20119;-80
2022/06/27 14:45:55;;;;;;;;;;;;;;;;;;5023869;28;20049;-82
2022/06/27 14:48:22;;;;;;;17.15;12.55;;;;;;;;;;5027351;28;19921;-79
2022/06/27 14:50:48;;;;;;;18.33;11.25;;;;;;;;;;5027595;28;20132;-81
2022/06/27 14:53:15;;;;;;;13.57;8.10;;;;;;;;;;5027980;28;20056;-82
2022/06/27 14:55:40;;;;;;;;;;;;;;;;;;5026630;28;20056;-84
2022/06/27 14:58:07;;;;;;;15.15;8.77;;;;;;;;;;5027794;28;19921;-83
2022/06/27 15:00:33;;;;;;;15.80;10.50;;;;;;;;;;5027097;28;20049;-77